Time;durP1;ratioP1;P1;durP2;ratioP2;P2;SDS_P1;SDS_P2;PMS_P1;PMS_P2;Temp;Humidity;BMP_temperature;BMP_pressure;BME280_temperature;BME280_humidity;BME280_pressure;Samples;Min_cycle;Max_cycle;Signal;HPM_P1;HPM_P2
2023/10/03 00:02:05;;;;;;;13.17;4.03;;;22.60;75.90;;;;;;5032551;28;20084;-16
2023/10/03 00:04:31;;;;;;;12.40;4.72;;;22.60;76.00;;;;;;5034166;28;20053;-15
2023/10/03 00:06:57;;;;;;;15.23;5.05;;;22.70;76.00;;;;;;4977983;28;20037;-16
2023/10/03 00:09:23;;;;;;;14.20;4.97;;;22.70;76.00;;;;;;4945962;28;20026;-16
2023/10/03 00:11:49;;;;;;;14.82;4.88;;;;;;;;;;5056392;28;20069;-16
2023/10/03 00:14:15;;;;;;;12.03;4.60;;;22.70;75.50;;;;;;5055813;28;20024;-16
2023/10/03 00:16:42;;;;;;;12.23;4.40;;;22.70;76.20;;;;;;5040843;28;20690;-16
2023/10/03 00:19:07;;;;;;;13.20;4.90;;;22.80;76.10;;;;;;5031559;28;20359;-16
2023/10/03 00:21:34;;;;;;;12.30;4.67;;;22.80;76.10;;;;;;5080664;28;20248;-16
2023/10/03 00:24:01;;;;;;;12.73;5.07;;;22.80;76.10;;;;;;5049947;28;20019;-16
2023/10/03 00:26:28;;;;;;;12.38;4.50;;;22.90;76.40;;;;;;5065546;28;20027;-16
2023/10/03 00:28:57;;;;;;;11.65;4.05;;;22.90;76.00;;;;;;5075505;28;20475;-16
2023/10/03 00:31:23;;;;;;;12.57;4.25;;;23.00;76.10;;;;;;5022710;28;20575;-16
2023/10/03 00:33:49;;;;;;;11.23;4.33;;;23.00;75.90;;;;;;5060960;28;20035;-16
2023/10/03 00:36:24;;;;;;;11.57;4.10;;;23.00;75.90;;;;;;5061554;28;20028;-16
2023/10/03 00:38:50;;;;;;;12.73;4.72;;;23.00;75.90;;;;;;5073643;28;20508;-16
2023/10/03 00:41:20;;;;;;;10.95;4.10;;;23.10;75.80;;;;;;5030903;28;20023;-16
2023/10/03 00:43:51;;;;;;;12.93;4.67;;;23.10;75.80;;;;;;5088715;28;20028;-17
2023/10/03 00:46:18;;;;;;;11.50;4.32;;;23.10;75.70;;;;;;5070114;28;20051;-17
2023/10/03 00:48:47;;;;;;;11.80;4.78;;;23.20;75.80;;;;;;5065601;28;20105;-17
2023/10/03 00:51:14;;;;;;;11.15;4.00;;;23.20;75.60;;;;;;5083555;28;20039;-17
2023/10/03 00:53:40;;;;;;;10.48;3.92;;;23.20;75.60;;;;;;5064352;28;20015;-17
2023/10/03 00:56:09;;;;;;;10.03;3.70;;;23.20;75.40;;;;;;5015075;28;20387;-16
2023/10/03 00:58:36;;;;;;;10.30;4.32;;;23.20;75.40;;;;;;5071326;28;20111;-17
2023/10/03 01:01:03;;;;;;;10.57;3.90;;;23.30;75.40;;;;;;5066796;28;20097;-17
2023/10/03 01:03:36;;;;;;;8.93;3.55;;;23.20;75.30;;;;;;5050686;28;20431;-17
2023/10/03 01:06:10;;;;;;;10.10;4.03;;;23.30;75.40;;;;;;5064050;28;20516;-18
2023/10/03 01:08:46;;;;;;;10.87;3.57;;;23.20;75.30;;;;;;5066423;28;20047;-17
2023/10/03 01:11:15;;;;;;;9.90;3.72;;;23.20;75.20;;;;;;5048359;28;20462;-16
2023/10/03 01:14:00;;;;;;;10.40;4.10;;;23.20;75.30;;;;;;5049003;28;20035;-17
2023/10/03 01:16:33;;;;;;;8.48;3.25;;;23.20;75.30;;;;;;5046480;28;20264;-16
2023/10/03 01:21:45;;;;;;;9.17;3.17;;;23.30;75.30;;;;;;5077267;28;20028;-17
2023/10/03 01:24:15;;;;;;;7.07;3.03;;;23.20;75.20;;;;;;5076440;28;20035;-16
2023/10/03 01:26:41;;;;;;;8.82;3.05;;;23.20;75.30;;;;;;5031622;28;20458;-17
2023/10/03 01:29:07;;;;;;;12.70;3.53;;;23.20;75.30;;;;;;5068568;28;20024;-16
2023/10/03 01:31:32;;;;;;;8.70;3.07;;;23.20;75.30;;;;;;5055429;28;20040;-17
2023/10/03 01:34:01;;;;;;;8.73;3.35;;;23.20;75.30;;;;;;5029556;28;20084;-17
2023/10/03 01:36:29;;;;;;;8.52;3.60;;;23.20;75.30;;;;;;5058699;28;20331;-17
2023/10/03 01:38:55;;;;;;;7.72;3.05;;;23.30;75.30;;;;;;5081037;28;20022;-17
2023/10/03 01:41:21;;;;;;;8.00;3.13;;;23.20;75.30;;;;;;5031011;28;20056;-16
2023/10/03 01:43:48;;;;;;;7.77;3.23;;;23.30;75.40;;;;;;5041101;28;20040;-17
2023/10/03 01:46:14;;;;;;;8.55;3.10;;;23.30;75.30;;;;;;5028019;28;20036;-18
2023/10/03 01:48:41;;;;;;;7.72;2.75;;;23.30;75.30;;;;;;5027792;28;20032;-19
2023/10/03 01:51:08;;;;;;;7.68;3.05;;;23.40;75.40;;;;;;5059524;28;20024;-16
2023/10/03 01:53:35;;;;;;;7.83;3.17;;;23.40;75.50;;;;;;5055567;28;20032;-17
2023/10/03 01:56:01;;;;;;;6.93;3.15;;;23.50;75.60;;;;;;5079905;28;20032;-16
2023/10/03 01:58:27;;;;;;;8.55;3.60;;;23.50;75.70;;;;;;5047131;28;20253;-16
2023/10/03 02:00:53;;;;;;;7.73;3.03;;;23.10;77.20;;;;;;5067073;28;20076;-17
2023/10/03 02:03:21;;;;;;;8.80;2.93;;;23.70;75.70;;;;;;5040684;28;20887;-16
2023/10/03 02:05:48;;;;;;;8.98;3.20;;;23.70;75.70;;;;;;5015385;28;20430;-17
2023/10/03 02:08:15;;;;;;;7.32;3.15;;;23.80;75.60;;;;;;5040280;28;20752;-16
2023/10/03 02:10:45;;;;;;;8.70;3.50;;;23.80;75.50;;;;;;5079118;28;20544;-16
2023/10/03 02:13:17;;;;;;;7.85;3.15;;;23.90;75.20;;;;;;5075361;28;20505;-16
2023/10/03 02:15:47;;;;;;;10.67;3.67;;;24.00;75.20;;;;;;5034388;28;20055;-17
2023/10/03 02:18:13;;;;;;;9.07;3.45;;;24.00;75.10;;;;;;5041626;28;20036;-16
2023/10/03 02:20:52;;;;;;;9.63;3.83;;;24.10;75.10;;;;;;5034859;28;20055;-17
2023/10/03 02:23:26;;;;;;;10.10;3.65;;;24.10;74.90;;;;;;5076504;28;20526;-17
2023/10/03 02:25:57;;;;;;;8.40;3.30;;;24.10;74.80;;;;;;5057202;28;20078;-17
2023/10/03 02:28:26;;;;;;;7.67;3.00;;;24.10;74.70;;;;;;5061430;28;20032;-17
2023/10/03 02:30:52;;;;;;;9.80;3.40;;;24.00;74.60;;;;;;5033240;28;20035;-17
2023/10/03 02:33:21;;;;;;;8.35;3.38;;;24.00;74.60;;;;;;5074000;28;20027;-17
2023/10/03 02:35:47;;;;;;;9.75;2.97;;;24.00;74.60;;;;;;5043631;28;20381;-16
2023/10/03 02:38:57;;;;;;;9.65;3.40;;;24.00;74.50;;;;;;5056086;28;20230;-17
2023/10/03 02:41:10;;;;;;;9.83;3.17;;;23.90;74.50;;;;;;5068332;28;20093;-17
2023/10/03 02:43:43;;;;;;;9.07;3.00;;;23.90;74.60;;;;;;5079039;28;20531;-17
2023/10/03 02:46:12;;;;;;;8.57;3.40;;;23.80;75.40;;;;;;5022358;28;20112;-16
2023/10/03 02:48:38;;;;;;;7.13;2.92;;;23.80;74.80;;;;;;5075181;28;20022;-17
2023/10/03 02:51:05;;;;;;;7.43;3.30;;;23.80;74.70;;;;;;5059728;28;20027;-17
2023/10/03 02:53:31;;;;;;;7.90;3.00;;;23.70;75.00;;;;;;5043146;28;20145;-17
2023/10/03 02:55:58;;;;;;;7.53;3.03;;;23.70;75.10;;;;;;5080501;28;20035;-17
2023/10/03 02:58:24;;;;;;;6.70;2.83;;;23.70;75.20;;;;;;5076575;28;20264;-17
2023/10/03 03:00:54;;;;;;;6.00;2.92;;;23.60;75.30;;;;;;5084056;28;20024;-17
2023/10/03 03:03:22;;;;;;;7.40;2.87;;;23.50;75.70;;;;;;5034652;28;20218;-17
2023/10/03 03:05:49;;;;;;;6.22;2.97;;;23.50;75.60;;;;;;5061090;28;20024;-17
2023/10/03 03:11:00;;;;;;;5.93;2.55;;;23.40;75.90;;;;;;5078856;28;20056;-17
2023/10/03 03:13:35;;;;;;;5.68;2.50;;;23.30;76.30;;;;;;5079332;28;20047;-18
2023/10/03 03:16:15;;;;;;;6.80;2.60;;;23.30;76.40;;;;;;5068342;28;20051;-16
2023/10/03 03:18:41;;;;;;;5.88;2.47;;;23.20;76.00;;;;;;5049782;28;20448;-17
2023/10/03 03:21:10;;;;;;;5.40;2.50;;;23.20;76.90;;;;;;5052837;28;20454;-16
2023/10/03 03:23:38;;;;;;;5.95;2.42;;;23.20;76.40;;;;;;5064023;28;20028;-17
2023/10/03 03:28:41;;;;;;;5.97;2.40;;;23.10;76.50;;;;;;5080097;28;20021;-18
2023/10/03 03:31:25;;;;;;;3.95;2.40;;;23.10;76.50;;;;;;5060903;28;20032;-17
2023/10/03 03:33:53;;;;;;;5.03;2.38;;;23.00;76.50;;;;;;5023251;28;20034;-17
2023/10/03 03:36:20;;;;;;;4.32;2.30;;;23.00;76.60;;;;;;5066757;28;20414;-17
2023/10/03 03:38:48;;;;;;;4.35;2.20;;;23.00;76.60;;;;;;5080946;28;20024;-17
2023/10/03 03:41:15;;;;;;;5.63;2.20;;;22.90;76.60;;;;;;5045897;28;20036;-17
2023/10/03 03:43:42;;;;;;;3.35;1.90;;;22.90;76.60;;;;;;5085284;28;20035;-17
2023/10/03 03:46:09;;;;;;;4.30;1.88;;;22.90;76.80;;;;;;5081682;28;20593;-17
2023/10/03 03:48:36;;;;;;;4.70;2.20;;;22.80;76.80;;;;;;5015454;28;20367;-16
2023/10/03 03:51:06;;;;;;;5.10;2.00;;;22.80;76.80;;;;;;5041289;28;20027;-17
2023/10/03 03:53:33;;;;;;;3.60;1.70;;;22.80;76.90;;;;;;5078192;28;20355;-17
2023/10/03 03:56:07;;;;;;;4.90;2.20;;;22.70;77.00;;;;;;5027073;28;20051;-17
2023/10/03 03:58:37;;;;;;;3.47;2.00;;;22.80;77.40;;;;;;5080758;28;20043;-17
2023/10/03 04:01:07;;;;;;;3.03;1.90;;;22.70;77.20;;;;;;5044118;28;20056;-17
2023/10/03 04:03:35;;;;;;;6.15;2.33;;;22.70;77.10;;;;;;5060916;28;20264;-18
2023/10/03 04:06:02;;;;;;;4.20;2.03;;;22.70;77.20;;;;;;5033656;28;20118;-17
2023/10/03 04:08:27;;;;;;;3.33;2.10;;;22.60;77.20;;;;;;5058535;28;20670;-17
2023/10/03 04:10:53;;;;;;;4.90;2.10;;;22.60;77.10;;;;;;5031912;28;20044;-17
2023/10/03 04:13:20;;;;;;;4.47;2.10;;;22.50;77.00;;;;;;5077836;28;20020;-16
2023/10/03 04:15:47;;;;;;;3.45;1.95;;;22.50;77.10;;;;;;5061145;28;20068;-16
2023/10/03 04:18:15;;;;;;;2.72;1.90;;;22.50;77.20;;;;;;5078012;28;20027;-16
2023/10/03 04:20:44;;;;;;;5.93;2.10;;;22.40;77.00;;;;;;5017843;28;20032;-16
2023/10/03 04:23:11;;;;;;;3.65;2.00;;;22.40;77.10;;;;;;5067731;28;20619;-16
2023/10/03 04:25:39;;;;;;;4.50;1.80;;;22.40;77.20;;;;;;5063146;28;20455;-16
2023/10/03 04:28:05;;;;;;;5.05;2.30;;;22.30;77.20;;;;;;5071566;28;20741;-16
2023/10/03 04:30:31;;;;;;;4.30;2.20;;;22.30;77.30;;;;;;5077490;28;21016;-17
2023/10/03 04:32:57;;;;;;;4.35;2.47;;;22.30;77.30;;;;;;5064913;28;20042;-25
2023/10/03 04:35:24;;;;;;;3.37;1.97;;;22.20;77.40;;;;;;5069384;28;20853;-16
2023/10/03 04:37:52;;;;;;;4.53;2.08;;;22.20;77.50;;;;;;5053106;28;20490;-16
2023/10/03 04:40:22;;;;;;;3.53;2.20;;;22.20;77.70;;;;;;5075339;28;20556;-16
2023/10/03 04:42:56;;;;;;;3.40;1.77;;;22.10;77.70;;;;;;5069345;28;20593;-16
2023/10/03 04:45:22;;;;;;;4.18;2.03;;;22.10;77.90;;;;;;5075214;28;20508;-16
2023/10/03 04:47:48;;;;;;;4.00;2.30;;;22.10;77.70;;;;;;5080246;28;20039;-17
2023/10/03 04:50:18;;;;;;;4.38;2.00;;;22.00;78.10;;;;;;5077040;28;20039;-16
2023/10/03 04:52:49;;;;;;;3.83;2.00;;;22.00;78.00;;;;;;5035937;28;20032;-16
2023/10/03 04:55:19;;;;;;;4.35;2.22;;;22.00;78.20;;;;;;5078242;28;20367;-16
2023/10/03 04:57:47;;;;;;;3.00;2.00;;;22.00;78.40;;;;;;5050878;28;20031;-16
2023/10/03 05:00:15;;;;;;;3.90;2.13;;;22.00;78.20;;;;;;5075618;28;20032;-16
2023/10/03 05:02:52;;;;;;;5.93;2.00;;;21.90;78.10;;;;;;5038637;28;20032;-16
2023/10/03 05:05:18;;;;;;;4.57;2.10;;;21.90;78.80;;;;;;5079959;28;20080;-16
2023/10/03 05:07:45;;;;;;;3.50;2.00;;;21.80;78.20;;;;;;5036304;28;20047;-16
2023/10/03 05:10:12;;;;;;;4.33;2.00;;;21.80;78.40;;;;;;5081283;28;20092;-16
2023/10/03 05:12:38;;;;;;;4.20;1.90;;;21.80;78.50;;;;;;5051589;28;20016;-17
2023/10/03 05:15:08;;;;;;;3.78;2.08;;;21.80;78.40;;;;;;5055523;28;20161;-17
2023/10/03 05:17:37;;;;;;;3.83;1.95;;;21.70;78.60;;;;;;5060092;28;20016;-16
2023/10/03 05:20:03;;;;;;;3.77;1.70;;;21.70;78.80;;;;;;5077488;28;20028;-16
2023/10/03 05:22:31;;;;;;;3.17;1.98;;;21.70;78.60;;;;;;5048689;28;20031;-16
2023/10/03 05:25:01;;;;;;;2.75;1.77;;;21.70;78.90;;;;;;5064011;28;20089;-16
2023/10/03 05:27:32;;;;;;;3.92;1.52;;;21.70;78.90;;;;;;5077319;28;20032;-16
2023/10/03 05:30:05;;;;;;;3.03;2.08;;;21.70;79.20;;;;;;5067256;28;20735;-16
2023/10/03 05:32:38;;;;;;;3.63;1.80;;;21.70;79.00;;;;;;5052594;28;20063;-16
2023/10/03 05:35:05;;;;;;;3.90;2.30;;;21.60;79.30;;;;;;5055447;28;20713;-16
2023/10/03 05:37:34;;;;;;;4.25;2.10;;;21.60;79.00;;;;;;5047665;28;20024;-16
2023/10/03 05:40:20;;;;;;;4.85;2.13;;;21.60;79.00;;;;;;5059310;28;20238;-16
2023/10/03 05:42:49;;;;;;;3.90;2.00;;;21.60;79.50;;;;;;5069132;28;20080;-16
2023/10/03 05:45:17;;;;;;;6.10;2.20;;;21.50;79.00;;;;;;5049288;28;20031;-18
2023/10/03 05:47:45;;;;;;;4.15;2.00;;;21.60;79.40;;;;;;5073026;28;20028;-16
2023/10/03 05:50:12;;;;;;;5.43;2.20;;;21.50;79.50;;;;;;5045470;28;21319;-16
2023/10/03 05:52:39;;;;;;;3.15;2.20;;;21.50;79.40;;;;;;5027515;28;20124;-16
2023/10/03 05:55:05;;;;;;;3.83;2.00;;;21.50;79.50;;;;;;5043179;28;20024;-16
2023/10/03 05:57:31;;;;;;;5.00;2.10;;;21.50;79.70;;;;;;5069699;28;20046;-16
2023/10/03 05:59:58;;;;;;;5.60;2.53;;;21.40;79.70;;;;;;5058418;28;20147;-16
2023/10/03 06:02:24;;;;;;;5.15;2.30;;;21.40;79.80;;;;;;5058827;28;20028;-16
2023/10/03 06:04:52;;;;;;;3.70;1.88;;;21.40;80.00;;;;;;5071305;28;20031;-16
2023/10/03 06:07:18;;;;;;;4.00;2.10;;;21.40;80.00;;;;;;5051655;28;20024;-16
2023/10/03 06:09:44;;;;;;;4.17;2.23;;;21.40;80.10;;;;;;5038710;28;20471;-16
2023/10/03 06:12:09;;;;;;;3.67;2.33;;;21.40;80.00;;;;;;5065698;28;20576;-17
2023/10/03 06:14:36;;;;;;;4.23;2.30;;;21.30;80.10;;;;;;5037700;28;20042;-17
2023/10/03 06:17:02;;;;;;;4.47;2.35;;;21.30;80.40;;;;;;5060955;28;20434;-16
2023/10/03 06:19:30;;;;;;;4.75;2.30;;;21.30;80.50;;;;;;5056447;28;20385;-18
2023/10/03 06:21:56;;;;;;;5.45;2.22;;;21.40;80.50;;;;;;5065941;28;20713;-16
2023/10/03 06:24:25;;;;;;;3.88;2.17;;;22.50;82.60;;;;;;5045985;28;20556;-19
2023/10/03 06:26:51;;;;;;;3.73;2.03;;;21.30;80.70;;;;;;5057132;28;20024;-17
2023/10/03 06:29:16;;;;;;;4.03;2.17;;;21.30;80.80;;;;;;5075836;28;20109;-17
2023/10/03 06:31:46;;;;;;;5.20;2.30;;;21.30;80.90;;;;;;5056764;28;20149;-17
2023/10/03 06:34:12;;;;;;;5.10;2.13;;;21.30;81.00;;;;;;5067975;28;20103;-17
2023/10/03 06:36:38;;;;;;;3.90;2.23;;;21.40;81.10;;;;;;5075495;28;20022;-17
2023/10/03 06:39:04;;;;;;;4.65;2.25;;;21.30;81.20;;;;;;5024501;28;20218;-18
2023/10/03 06:41:31;;;;;;;4.80;2.20;;;21.40;81.30;;;;;;5062236;28;20107;-17
2023/10/03 06:43:57;;;;;;;3.60;2.20;;;21.40;81.20;;;;;;5046060;28;20574;-17
2023/10/03 06:46:23;;;;;;;4.32;2.17;;;21.40;81.40;;;;;;5066065;28;20036;-18
2023/10/03 06:48:52;;;;;;;3.35;2.30;;;21.40;81.50;;;;;;5079323;28;20031;-17
2023/10/03 06:51:18;;;;;;;4.55;2.00;;;21.50;81.60;;;;;;5052504;28;20034;-18
2023/10/03 06:53:48;;;;;;;4.50;2.00;;;21.50;81.70;;;;;;5057827;28;20082;-17
2023/10/03 06:56:15;;;;;;;4.30;2.05;;;21.50;81.70;;;;;;5033889;28;20035;-17
2023/10/03 06:58:41;;;;;;;5.07;2.10;;;21.50;81.90;;;;;;5071636;28;20063;-17
2023/10/03 07:01:11;;;;;;;5.18;2.10;;;21.50;81.80;;;;;;5067290;28;20025;-17
2023/10/03 07:03:38;;;;;;;6.10;2.28;;;21.60;81.80;;;;;;5083993;28;20028;-18
2023/10/03 07:06:07;;;;;;;4.10;2.10;;;21.60;81.80;;;;;;5026997;28;20108;-17
2023/10/03 07:08:34;;;;;;;4.45;2.15;;;21.60;81.90;;;;;;5075360;28;20021;-17
2023/10/03 07:11:00;;;;;;;3.33;1.95;;;21.60;81.90;;;;;;5053173;28;20083;-17
2023/10/03 07:13:27;;;;;;;4.13;2.40;;;21.60;82.30;;;;;;5065238;28;20375;-17
2023/10/03 07:16:01;;;;;;;4.60;2.60;;;21.60;82.20;;;;;;5081930;28;20567;-18
2023/10/03 07:18:27;;;;;;;4.07;2.20;;;21.70;82.80;;;;;;5030093;28;20118;-17
2023/10/03 07:20:55;;;;;;;5.53;2.42;;;21.60;82.10;;;;;;5055539;28;20016;-17
2023/10/03 07:23:21;;;;;;;4.25;2.30;;;21.60;82.30;;;;;;5063683;28;20067;-18
2023/10/03 07:25:48;;;;;;;5.23;2.37;;;21.60;82.30;;;;;;5051523;28;20612;-18
2023/10/03 07:28:14;;;;;;;6.13;2.65;;;21.70;82.40;;;;;;5066518;28;20039;-17
2023/10/03 07:30:41;;;;;;;4.47;2.40;;;21.60;82.30;;;;;;5082723;28;20039;-17
2023/10/03 07:33:08;;;;;;;4.05;2.35;;;21.70;82.50;;;;;;5049697;28;20055;-17
2023/10/03 07:35:37;;;;;;;4.30;2.20;;;21.70;82.70;;;;;;5060006;28;20245;-18
2023/10/03 07:38:03;;;;;;;3.40;2.10;;;21.70;82.70;;;;;;5068106;28;20023;-18
2023/10/03 07:40:29;;;;;;;4.32;2.25;;;21.70;82.70;;;;;;5052585;28;21334;-17
2023/10/03 07:42:55;;;;;;;4.70;2.55;;;21.70;82.70;;;;;;5050246;28;20024;-18
2023/10/03 07:45:21;;;;;;;3.97;2.20;;;21.70;82.50;;;;;;5080691;28;20028;-17
2023/10/03 07:47:46;;;;;;;3.95;2.05;;;21.70;82.70;;;;;;5028724;28;20044;-17
2023/10/03 07:50:13;;;;;;;4.60;2.13;;;21.70;82.70;;;;;;5077356;28;21175;-17
2023/10/03 07:52:44;;;;;;;3.40;2.10;;;21.70;82.80;;;;;;5071316;28;20059;-17
2023/10/03 07:55:11;;;;;;;4.15;2.20;;;21.60;82.80;;;;;;5058201;28;20252;-17
2023/10/03 07:57:39;;;;;;;3.58;2.10;;;21.70;83.00;;;;;;5035511;28;20024;-17
2023/10/03 08:00:07;;;;;;;3.40;2.10;;;21.60;83.10;;;;;;5067069;28;20028;-19
2023/10/03 08:02:33;;;;;;;2.70;1.90;;;21.60;83.30;;;;;;5041824;28;20054;-18
2023/10/03 08:05:02;;;;;;;3.53;2.00;;;21.60;83.10;;;;;;5063202;28;20040;-17
2023/10/03 08:07:28;;;;;;;4.05;1.98;;;21.60;83.20;;;;;;5045519;28;20160;-17
2023/10/03 08:09:56;;;;;;;3.53;1.92;;;21.60;83.10;;;;;;5078642;28;20405;-17
2023/10/03 08:12:24;;;;;;;3.00;1.80;;;21.60;83.00;;;;;;5038132;28;20408;-17
2023/10/03 08:14:53;;;;;;;4.13;1.88;;;21.50;82.90;;;;;;5078830;28;20525;-18
2023/10/03 08:17:31;;;;;;;3.73;1.80;;;21.50;83.20;;;;;;5075951;28;20491;-17
2023/10/03 08:19:57;;;;;;;2.53;1.42;;;21.40;83.30;;;;;;5041655;28;20557;-18
2023/10/03 08:22:23;;;;;;;2.38;1.50;;;21.30;82.90;;;;;;5072288;28;20029;-17
2023/10/03 08:24:49;;;;;;;2.85;1.50;;;21.20;82.90;;;;;;5022105;28;20028;-17
2023/10/03 08:27:18;;;;;;;2.83;1.27;;;21.10;83.00;;;;;;5029611;28;20452;-18
2023/10/03 08:29:50;;;;;;;2.13;1.40;;;21.10;83.10;;;;;;5060584;28;20521;-17
2023/10/03 08:32:17;;;;;;;1.83;1.35;;;21.10;83.40;;;;;;5060571;28;20035;-17
2023/10/03 08:34:46;;;;;;;2.80;1.33;;;21.00;83.40;;;;;;5070334;28;20034;-17
2023/10/03 08:37:21;;;;;;;1.70;1.23;;;20.90;83.60;;;;;;5065203;28;20024;-18
2023/10/03 08:39:51;;;;;;;2.10;1.10;;;20.90;83.60;;;;;;5075459;28;20031;-17
2023/10/03 08:42:36;;;;;;;1.47;0.97;;;20.90;83.60;;;;;;5056328;28;20020;-18
2023/10/03 08:45:27;;;;;;;2.38;1.10;;;20.90;83.70;;;;;;5067289;28;20679;-18
2023/10/03 08:47:53;;;;;;;1.27;0.80;;;20.90;84.20;;;;;;5069826;28;20141;-17
2023/10/03 08:51:13;;;;;;;2.30;1.00;;;20.90;83.90;;;;;;5063501;28;20553;-19
2023/10/03 08:53:12;;;;;;;1.70;1.05;;;20.90;84.00;;;;;;5058074;28;20398;-17
2023/10/03 08:55:43;;;;;;;1.63;0.87;;;21.00;84.00;;;;;;5079823;28;20434;-17
2023/10/03 08:58:13;;;;;;;1.38;0.90;;;21.00;84.20;;;;;;5034659;28;20648;-17
2023/10/03 09:00:50;;;;;;;1.13;0.90;;;21.00;84.70;;;;;;5043012;28;20386;-17
2023/10/03 09:03:18;;;;;;;1.58;1.00;;;21.00;84.30;;;;;;5085225;28;20485;-17
2023/10/03 09:05:45;;;;;;;2.58;0.98;;;21.10;84.20;;;;;;5066319;28;20055;-17
2023/10/03 09:08:12;;;;;;;1.73;0.70;;;21.10;84.10;;;;;;5071732;28;20027;-17
2023/10/03 09:10:51;;;;;;;2.00;0.90;;;21.70;85.90;;;;;;5079478;28;20136;-17
2023/10/03 09:13:23;;;;;;;1.08;0.70;;;21.10;84.20;;;;;;5034696;28;20042;-17
2023/10/03 09:16:00;;;;;;;1.55;0.77;;;21.20;84.20;;;;;;5029431;28;20086;-17
2023/10/03 09:18:31;;;;;;;1.05;0.73;;;21.10;84.10;;;;;;5060061;28;20347;-17
2023/10/03 09:20:59;;;;;;;1.50;0.70;;;21.20;84.20;;;;;;5029065;28;23684;-17
2023/10/03 09:23:37;;;;;;;1.88;0.80;;;21.30;84.40;;;;;;5076311;28;20028;-16
2023/10/03 09:26:06;;;;;;;1.83;0.80;;;21.30;84.60;;;;;;5054782;28;20472;-17
2023/10/03 09:28:35;;;;;;;2.55;0.85;;;21.40;84.90;;;;;;5052197;28;20304;-17
2023/10/03 09:31:08;;;;;;;1.20;0.70;;;21.50;85.10;;;;;;5047463;28;20162;-16
2023/10/03 09:33:39;;;;;;;1.90;0.60;;;21.60;85.10;;;;;;5078711;28;20028;-16
2023/10/03 09:36:06;;;;;;;1.38;0.80;;;21.70;84.80;;;;;;5057541;28;20590;-16
2023/10/03 09:38:44;;;;;;;0.73;0.50;;;21.80;84.50;;;;;;5044446;28;20332;-17
2023/10/03 09:41:17;;;;;;;1.52;0.60;;;21.80;84.30;;;;;;5072392;28;20028;-17
2023/10/03 09:43:56;;;;;;;1.08;0.70;;;21.90;84.20;;;;;;5047007;28;20107;-17
2023/10/03 09:46:26;;;;;;;1.07;0.60;;;21.90;83.70;;;;;;5063406;28;20035;-16
2023/10/03 09:48:54;;;;;;;2.35;0.70;;;22.00;83.30;;;;;;5074910;28;20383;-17
2023/10/03 09:51:36;;;;;;;0.65;0.52;;;22.00;82.60;;;;;;5060906;28;20071;-17
2023/10/03 09:54:12;;;;;;;0.85;0.50;;;21.90;82.10;;;;;;5042325;28;20036;-17
2023/10/03 09:56:50;;;;;;;0.63;0.60;;;22.00;81.70;;;;;;5063262;27;20504;-14
2023/10/03 09:59:18;;;;;;;1.23;0.68;;;21.60;81.30;;;;;;5031976;28;20072;-14
2023/10/03 10:01:45;;;;;;;0.75;0.40;;;21.50;81.30;;;;;;5029415;28;20517;-14
2023/10/03 10:04:14;;;;;;;0.82;0.60;;;21.40;81.50;;;;;;5057465;28;20486;-15
2023/10/03 10:06:50;;;;;;;0.50;0.50;;;21.20;81.80;;;;;;5043982;28;20040;-15
2023/10/03 10:09:29;;;;;;;1.60;0.68;;;21.10;82.20;;;;;;5032750;28;20671;-15
2023/10/03 10:12:15;;;;;;;1.65;0.60;;;21.00;82.40;;;;;;5044857;28;20235;-15
2023/10/03 10:17:55;;;;;;;0.98;0.70;;;21.20;85.90;;;;;;5027343;28;20152;-15
2023/10/03 10:20:37;;;;;;;0.60;0.40;;;21.00;83.40;;;;;;5041643;28;21375;-15
2023/10/03 10:23:04;;;;;;;0.50;0.50;;;21.00;83.70;;;;;;5043028;28;20477;-15
2023/10/03 10:25:43;;;;;;;0.60;0.50;;;21.10;84.10;;;;;;5036964;28;20106;-15
2023/10/03 10:28:11;;;;;;;1.10;0.50;;;21.30;84.40;;;;;;5041680;28;20041;-15
2023/10/03 10:30:42;;;;;;;1.10;0.60;;;21.80;86.90;;;;;;5030785;28;20025;-15
2023/10/03 10:33:20;;;;;;;1.17;0.60;;;21.60;85.30;;;;;;5030428;28;20170;-15
2023/10/03 10:35:54;;;;;;;0.65;0.60;;;21.90;86.20;;;;;;5041420;28;20032;-15
2023/10/03 10:38:21;;;;;;;0.85;0.73;;;22.30;88.10;;;;;;5040858;28;20029;-15
2023/10/03 10:41:45;;;;;;;0.93;0.60;;;22.80;89.50;;;;;;5030198;28;20056;-15
2023/10/03 10:44:16;;;;;;;1.40;0.63;;;23.30;86.20;;;;;;5001893;28;20068;-16
2023/10/03 10:46:52;;;;;;;0.83;0.60;;;23.70;85.50;;;;;;4999092;28;20118;-16
2023/10/03 10:49:39;;;;;;;1.23;0.60;;;23.80;83.60;;;;;;5031827;28;20041;-16
2023/10/03 10:52:08;;;;;;;1.40;0.60;;;23.90;80.60;;;;;;5029352;28;20029;-16
2023/10/03 10:54:41;;;;;;;1.65;0.60;;;23.80;80.40;;;;;;5022549;28;20052;-16
2023/10/03 10:57:11;;;;;;;1.10;0.55;;;23.80;80.50;;;;;;5017833;28;20104;-16
2023/10/03 10:59:41;;;;;;;1.53;0.80;;;23.70;80.90;;;;;;5007637;28;20025;-16
2023/10/03 11:02:26;;;;;;;1.23;0.77;;;23.70;81.20;;;;;;4993306;28;20040;-16
2023/10/03 11:04:54;;;;;;;1.27;0.80;;;23.90;82.90;;;;;;5033745;28;20184;-16
2023/10/03 11:07:27;;;;;;;1.55;0.90;;;24.00;83.70;;;;;;5015830;28;20607;-16
2023/10/03 11:09:56;;;;;;;1.30;0.80;;;24.40;84.10;;;;;;5015911;28;20032;-16
2023/10/03 11:12:26;;;;;;;1.70;0.80;;;24.70;83.00;;;;;;5007629;28;20013;-17
2023/10/03 11:14:56;;;;;;;1.20;0.93;;;24.80;80.90;;;;;;5023547;28;20048;-15
2023/10/03 11:17:23;;;;;;;1.80;0.80;;;25.00;79.50;;;;;;4991340;28;20090;-15
2023/10/03 11:19:50;;;;;;;1.30;0.80;;;24.90;78.60;;;;;;5001644;28;20053;-15
2023/10/03 11:22:17;;;;;;;0.85;0.77;;;24.80;78.00;;;;;;4992974;28;20021;-15
2023/10/03 11:24:44;;;;;;;0.90;0.70;;;24.70;77.20;;;;;;4993653;28;20030;-15
2023/10/03 11:27:31;;;;;;;2.22;0.70;;;24.70;77.70;;;;;;4995923;28;20057;-15
2023/10/03 11:29:57;;;;;;;0.50;0.50;;;24.70;76.70;;;;;;5016372;28;20026;-15
2023/10/03 11:32:25;;;;;;;1.48;0.88;;;24.90;81.20;;;;;;4989071;28;20059;-15
2023/10/03 11:34:52;;;;;;;0.60;0.52;;;25.20;81.90;;;;;;5016206;28;20029;-16
2023/10/03 11:37:44;;;;;;;0.83;0.60;;;25.60;81.00;;;;;;5027042;28;20107;-18
2023/10/03 11:40:21;;;;;;;1.65;0.63;;;25.90;77.60;;;;;;5010964;28;20032;-15
2023/10/03 11:43:03;;;;;;;0.90;0.80;;;26.10;78.00;;;;;;5001620;28;20088;-15
2023/10/03 11:45:32;;;;;;;1.75;1.02;;;26.20;77.40;;;;;;5009402;28;20033;-15
2023/10/03 11:48:11;;;;;;;0.80;0.80;;;26.30;78.00;;;;;;4987174;28;20482;-15
2023/10/03 11:50:38;;;;;;;2.07;0.90;;;26.50;79.30;;;;;;4997018;28;20045;-15
2023/10/03 11:53:05;;;;;;;1.10;0.73;;;26.80;79.70;;;;;;5022532;28;20501;-16
2023/10/03 11:55:36;;;;;;;1.13;0.80;;;27.10;78.10;;;;;;5010669;28;20275;-15
2023/10/03 11:58:05;;;;;;;1.42;0.80;;;27.20;75.80;;;;;;4997468;28;20029;-15
2023/10/03 12:00:33;;;;;;;0.90;0.73;;;27.20;74.30;;;;;;5011185;28;20230;-16
2023/10/03 12:02:59;;;;;;;1.10;0.73;;;27.20;73.60;;;;;;4985480;28;20033;-15
2023/10/03 12:05:29;;;;;;;2.13;0.80;;;27.10;74.10;;;;;;4993079;28;20559;-15
2023/10/03 12:07:56;;;;;;;2.90;0.90;;;27.20;75.20;;;;;;5011778;28;20116;-15
2023/10/03 12:10:30;;;;;;;2.17;1.00;;;27.30;74.40;;;;;;5008562;28;20029;-15
2023/10/03 12:12:56;;;;;;;2.20;0.80;;;27.30;73.30;;;;;;4998400;28;20059;-15
2023/10/03 12:15:23;;;;;;;1.43;0.90;;;27.30;72.40;;;;;;5007669;28;20136;-15
2023/10/03 12:17:50;;;;;;;1.77;0.90;;;27.30;72.40;;;;;;5013326;28;20195;-15
2023/10/03 12:20:18;;;;;;;1.63;0.82;;;27.20;70.90;;;;;;4980707;28;20337;-15
2023/10/03 12:22:45;;;;;;;1.90;1.00;;;27.00;69.70;;;;;;5002854;28;20473;-15
2023/10/03 12:25:12;;;;;;;1.95;1.00;;;26.80;68.90;;;;;;5022582;28;20504;-15
2023/10/03 12:27:41;;;;;;;1.30;0.70;;;26.40;68.20;;;;;;5000206;28;20449;-15
2023/10/03 12:30:11;;;;;;;1.65;0.95;;;26.30;68.40;;;;;;5025952;28;20409;-15
2023/10/03 12:32:41;;;;;;;1.42;0.90;;;26.10;69.00;;;;;;5012489;28;20522;-15
2023/10/03 12:35:08;;;;;;;2.10;1.07;;;25.90;69.00;;;;;;4999875;28;20440;-16
2023/10/03 12:37:35;;;;;;;1.90;0.93;;;25.90;70.20;;;;;;4998323;28;20033;-16
2023/10/03 12:40:13;;;;;;;1.75;0.82;;;25.90;69.40;;;;;;5012334;28;20527;-16
2023/10/03 12:42:43;;;;;;;1.30;0.85;;;25.80;67.30;;;;;;5008926;28;20026;-16
2023/10/03 12:45:12;;;;;;;2.03;1.10;;;25.70;67.90;;;;;;4998323;28;20038;-16
2023/10/03 12:47:39;;;;;;;1.77;0.93;;;25.50;67.20;;;;;;5013538;28;20055;-17
2023/10/03 12:50:07;;;;;;;2.03;1.00;;;25.20;66.80;;;;;;4996547;28;20033;-16
2023/10/03 12:52:33;;;;;;;2.00;0.80;;;25.00;66.80;;;;;;5012208;28;20033;-16
2023/10/03 12:55:00;;;;;;;2.72;1.00;;;24.80;66.80;;;;;;5012516;28;20088;-16
2023/10/03 12:57:26;;;;;;;1.87;0.90;;;24.60;66.90;;;;;;5010778;28;20025;-17
2023/10/03 12:59:52;;;;;;;2.15;0.90;;;24.40;66.90;;;;;;5013837;28;20040;-16
2023/10/03 13:02:21;;;;;;;2.03;0.95;;;24.20;67.10;;;;;;5038599;28;20044;-17
2023/10/03 13:04:48;;;;;;;2.00;0.90;;;24.10;68.10;;;;;;4986922;28;20351;-16
2023/10/03 13:07:16;;;;;;;2.50;0.90;;;24.00;67.80;;;;;;5004546;28;20029;-16
2023/10/03 13:09:46;;;;;;;2.78;1.05;;;24.00;69.10;;;;;;4983508;28;20117;-16